Time,TemperatureF,DewpointF,PressureIn,WindDirection,WindDirectionDegrees,WindSpeedMPH,WindSpeedGustMPH,Humidity,HourlyPrecipIn,Conditions,Clouds,dailyrainin,SolarRadiationWatts/m^2,SoftwareType,DateUTC
2013-04-17 00:02:00,34.0,21.0,-100.00,NE,34,4.0,6.0,59,-99.99,,,0.00,0.120000,,2013-04-17 07:02:00,
2013-04-17 00:12:00,34.0,21.0,-100.00,NE,34,4.0,6.0,59,-99.99,,,0.00,0.120000,,2013-04-17 07:12:00,
2013-04-17 00:42:00,33.0,21.0,-100.00,NNE,20,4.0,5.0,60,-99.99,,,0.00,0.120000,,2013-04-17 07:42:00,
2013-04-17 00:52:00,33.0,21.0,-100.00,NNE,20,4.0,5.0,60,-99.99,,,0.00,0.120000,,2013-04-17 07:52:00,
2013-04-17 01:02:00,33.0,21.0,-100.00,NNE,20,4.0,5.0,60,-99.99,,,0.00,0.120000,,2013-04-17 08:02:00,
2013-04-17 01:12:00,33.0,21.0,-100.00,NNE,20,4.0,5.0,60,-99.99,,,0.00,0.120000,,2013-04-17 08:12:00,
2013-04-17 01:42:00,32.0,21.0,-100.00,NNE,29,3.0,5.0,64,-99.99,,,0.00,0.120000,,2013-04-17 08:42:00,
2013-04-17 01:52:00,32.0,21.0,-100.00,NNE,29,3.0,5.0,64,-99.99,,,0.00,0.120000,,2013-04-17 08:52:00,
2013-04-17 02:02:00,32.0,21.0,-100.00,NNE,29,3.0,5.0,64,-99.99,,,0.00,0.120000,,2013-04-17 09:02:00,
2013-04-17 02:12:00,32.0,21.0,-100.00,NNE,29,3.0,5.0,64,-99.99,,,0.00,0.120000,,2013-04-17 09:12:00,
2013-04-17 02:42:00,31.0,20.0,-100.00,NNE,22,4.0,6.0,63,-99.99,,,0.00,0.120000,,2013-04-17 09:42:00,
2013-04-17 02:52:00,31.0,20.0,-100.00,NNE,22,4.0,6.0,63,-99.99,,,0.00,0.120000,,2013-04-17 09:52:00,
2013-04-17 03:02:00,31.0,20.0,-100.00,NNE,22,4.0,6.0,63,-99.99,,,0.00,0.120000,,2013-04-17 10:02:00,
2013-04-17 03:12:00,31.0,20.0,-100.00,NNE,22,4.0,6.0,63,-99.99,,,0.00,0.120000,,2013-04-17 10:12:00,
2013-04-17 03:42:00,30.0,20.0,-100.00,NNE,26,4.0,5.0,66,-99.99,,,0.00,0.120000,,2013-04-17 10:42:00,
2013-04-17 03:52:00,30.0,20.0,-100.00,NNE,26,4.0,5.0,66,-99.99,,,0.00,0.120000,,2013-04-17 10:52:00,
2013-04-17 04:02:00,30.0,20.0,-100.00,NNE,26,4.0,5.0,66,-99.99,,,0.00,0.120000,,2013-04-17 11:02:00,
2013-04-17 04:11:00,30.0,20.0,-100.00,NNE,26,4.0,5.0,66,-99.99,,,0.00,0.120000,,2013-04-17 11:11:00,
2013-04-17 04:42:00,29.0,20.0,-100.00,NNE,32,4.0,5.0,67,-99.99,,,0.00,0.120000,,2013-04-17 11:42:00,
2013-04-17 04:52:00,29.0,20.0,-100.00,NNE,32,4.0,5.0,67,-99.99,,,0.00,0.120000,,2013-04-17 11:52:00,
2013-04-17 05:02:00,29.0,20.0,-100.00,NNE,32,4.0,5.0,67,-99.99,,,0.00,0.120000,,2013-04-17 12:02:00,
2013-04-17 05:12:00,29.0,20.0,-100.00,NNE,32,4.0,5.0,67,-99.99,,,0.00,0.120000,,2013-04-17 12:12:00,
2013-04-17 05:42:00,28.0,19.0,-100.00,NNE,23,4.0,6.0,66,-99.99,,,0.00,0.120000,,2013-04-17 12:42:00,
2013-04-17 05:52:00,28.0,19.0,-100.00,NNE,23,4.0,6.0,66,-99.99,,,0.00,0.120000,,2013-04-17 12:52:00,
2013-04-17 06:02:00,28.0,19.0,-100.00,NNE,23,4.0,6.0,66,-99.99,,,0.00,0.120000,,2013-04-17 13:02:00,
2013-04-17 06:12:00,28.0,19.0,-100.00,NNE,23,4.0,6.0,66,-99.99,,,0.00,0.120000,,2013-04-17 13:12:00,
2013-04-17 06:42:00,28.0,18.0,-100.00,NNE,25,4.0,6.0,65,-99.99,,,0.00,11.160000,,2013-04-17 13:42:00,
2013-04-17 06:52:00,28.0,18.0,-100.00,NNE,25,4.0,6.0,65,-99.99,,,0.00,11.160000,,2013-04-17 13:52:00,
2013-04-17 07:02:00,28.0,18.0,-100.00,NNE,25,4.0,6.0,65,-99.99,,,0.00,11.160000,,2013-04-17 14:02:00,
2013-04-17 07:12:00,28.0,18.0,-100.00,NNE,25,4.0,6.0,65,-99.99,,,0.00,11.160000,,2013-04-17 14:12:00,
2013-04-17 07:42:00,29.0,20.0,-100.00,NNE,25,3.0,5.0,68,-99.99,,,0.00,105.760002,,2013-04-17 14:42:00,
2013-04-17 07:52:00,29.0,20.0,-100.00,NNE,25,3.0,5.0,68,-99.99,,,0.00,105.760002,,2013-04-17 14:52:00,
2013-04-17 08:02:00,29.0,20.0,-100.00,NNE,25,3.0,5.0,68,-99.99,,,0.00,105.760002,,2013-04-17 15:02:00,
2013-04-17 08:12:00,29.0,20.0,-100.00,NNE,25,3.0,5.0,68,-99.99,,,0.00,105.760002,,2013-04-17 15:12:00,
2013-04-17 08:42:00,36.0,23.0,-100.00,ENE,63,1.0,3.0,58,-99.99,,,0.00,330.410004,,2013-04-17 15:42:00,
2013-04-17 08:53:00,36.0,23.0,-100.00,ENE,63,1.0,3.0,58,-99.99,,,0.00,330.410004,,2013-04-17 15:53:00,
2013-04-17 09:03:00,36.0,23.0,-100.00,ENE,63,1.0,3.0,58,-99.99,,,0.00,330.410004,,2013-04-17 16:03:00,
2013-04-17 09:12:00,36.0,23.0,-100.00,ENE,63,1.0,3.0,58,-99.99,,,0.00,330.410004,,2013-04-17 16:12:00,
2013-04-17 09:42:00,40.0,21.0,-100.00,SSE,164,2.0,4.0,45,-99.99,,,0.00,551.809998,,2013-04-17 16:42:00,
2013-04-17 09:52:00,40.0,21.0,-100.00,SSE,164,2.0,4.0,45,-99.99,,,0.00,551.809998,,2013-04-17 16:52:00,
2013-04-17 10:02:00,40.0,21.0,-100.00,SSE,164,2.0,4.0,45,-99.99,,,0.00,551.809998,,2013-04-17 17:02:00,
2013-04-17 10:12:00,40.0,21.0,-100.00,SSE,164,2.0,4.0,45,-99.99,,,0.00,551.809998,,2013-04-17 17:12:00,
2013-04-17 10:42:00,42.0,19.0,-100.00,WSW,240,3.0,7.0,39,-99.99,,,0.00,713.940002,,2013-04-17 17:42:00,
2013-04-17 10:52:00,42.0,19.0,-100.00,WSW,240,3.0,7.0,39,-99.99,,,0.00,713.940002,,2013-04-17 17:52:00,
2013-04-17 11:02:00,42.0,19.0,-100.00,WSW,240,3.0,7.0,39,-99.99,,,0.00,713.940002,,2013-04-17 18:02:00,
2013-04-17 11:12:00,42.0,19.0,-100.00,WSW,240,3.0,7.0,39,-99.99,,,0.00,713.940002,,2013-04-17 18:12:00,
2013-04-17 11:42:00,45.0,17.0,-100.00,SW,229,5.0,6.0,31,-99.99,,,0.00,829.809998,,2013-04-17 18:42:00,
2013-04-17 11:52:00,45.0,17.0,-100.00,SW,229,5.0,6.0,31,-99.99,,,0.00,829.809998,,2013-04-17 18:52:00,
2013-04-17 12:02:00,45.0,17.0,-100.00,SW,229,5.0,6.0,31,-99.99,,,0.00,829.809998,,2013-04-17 19:02:00,
2013-04-17 12:12:00,45.0,17.0,-100.00,SW,229,5.0,6.0,31,-99.99,,,0.00,829.809998,,2013-04-17 19:12:00,
2013-04-17 12:42:00,49.0,15.0,-100.00,SSW,205,2.0,5.0,25,-99.99,,,0.00,900.710022,,2013-04-17 19:42:00,
2013-04-17 12:52:00,49.0,15.0,-100.00,SSW,205,2.0,5.0,25,-99.99,,,0.00,900.710022,,2013-04-17 19:52:00,
2013-04-17 13:02:00,49.0,15.0,-100.00,SSW,205,2.0,5.0,25,-99.99,,,0.00,900.710022,,2013-04-17 20:02:00,
2013-04-17 13:12:00,49.0,15.0,-100.00,SSW,205,2.0,5.0,25,-99.99,,,0.00,900.710022,,2013-04-17 20:12:00,
2013-04-17 13:42:00,51.0,15.0,-100.00,SSW,196,3.0,6.0,23,-99.99,,,0.00,911.159973,,2013-04-17 20:42:00,
2013-04-17 13:52:00,51.0,15.0,-100.00,SSW,196,3.0,6.0,23,-99.99,,,0.00,911.159973,,2013-04-17 20:52:00,
2013-04-17 14:02:00,51.0,15.0,-100.00,SSW,196,3.0,6.0,23,-99.99,,,0.00,911.159973,,2013-04-17 21:02:00,
2013-04-17 14:12:00,51.0,15.0,-100.00,SSW,196,3.0,6.0,23,-99.99,,,0.00,911.159973,,2013-04-17 21:12:00,
2013-04-17 14:42:00,52.0,18.0,-100.00,SW,217,8.0,14.0,26,-99.99,,,0.00,861.190002,,2013-04-17 21:42:00,
2013-04-17 14:53:00,52.0,18.0,-100.00,SW,217,8.0,14.0,26,-99.99,,,0.00,861.190002,,2013-04-17 21:53:00,
2013-04-17 15:02:00,52.0,18.0,-100.00,SW,217,8.0,14.0,26,-99.99,,,0.00,861.190002,,2013-04-17 22:02:00,
2013-04-17 15:12:00,52.0,18.0,-100.00,SW,217,8.0,14.0,26,-99.99,,,0.00,861.190002,,2013-04-17 22:12:00,
2013-04-17 15:42:00,53.0,18.0,-100.00,SW,229,6.0,11.0,24,-99.99,,,0.00,762.520020,,2013-04-17 22:42:00,
2013-04-17 15:53:00,53.0,18.0,-100.00,SW,229,6.0,11.0,24,-99.99,,,0.00,762.520020,,2013-04-17 22:53:00,
2013-04-17 16:02:00,53.0,18.0,-100.00,SW,229,6.0,11.0,24,-99.99,,,0.00,762.520020,,2013-04-17 23:02:00,
2013-04-17 16:12:00,53.0,18.0,-100.00,SW,229,6.0,11.0,24,-99.99,,,0.00,762.520020,,2013-04-17 23:12:00,
2013-04-17 16:42:00,53.0,22.0,-100.00,WSW,253,13.0,20.0,30,-99.99,,,0.00,675.700012,,2013-04-17 23:42:00,
2013-04-17 16:52:00,53.0,22.0,-100.00,WSW,253,13.0,20.0,30,-99.99,,,0.00,675.700012,,2013-04-17 23:52:00,
2013-04-17 17:02:00,53.0,22.0,-100.00,WSW,253,13.0,20.0,30,-99.99,,,0.00,675.700012,,2013-04-18 00:02:00,
2013-04-17 17:12:00,53.0,22.0,-100.00,WSW,253,13.0,20.0,30,-99.99,,,0.00,675.700012,,2013-04-18 00:12:00,
2013-04-17 18:42:00,54.0,15.0,-100.00,WNW,283,5.0,10.0,20,-99.99,,,0.00,301.470001,,2013-04-18 01:42:00,
2013-04-17 18:52:00,54.0,15.0,-100.00,WNW,283,5.0,10.0,20,-99.99,,,0.00,301.470001,,2013-04-18 01:52:00,
2013-04-17 19:02:00,54.0,15.0,-100.00,WNW,283,5.0,10.0,20,-99.99,,,0.00,301.470001,,2013-04-18 02:02:00,
2013-04-17 19:12:00,54.0,15.0,-100.00,WNW,283,5.0,10.0,20,-99.99,,,0.00,301.470001,,2013-04-18 02:12:00,
2013-04-17 20:02:00,51.0,15.0,-100.00,WNW,303,4.0,14.0,23,-99.99,,,0.00,20.450001,,2013-04-18 03:02:00,
2013-04-17 20:12:00,51.0,15.0,-100.00,WNW,303,4.0,14.0,23,-99.99,,,0.00,20.450001,,2013-04-18 03:12:00,
2013-04-17 20:43:00,45.0,22.0,-100.00,NE,44,2.0,4.0,39,-99.99,,,0.00,0.120000,,2013-04-18 03:43:00,
2013-04-17 20:53:00,45.0,22.0,-100.00,NE,44,2.0,4.0,39,-99.99,,,0.00,0.120000,,2013-04-18 03:53:00,
2013-04-17 21:03:00,45.0,22.0,-100.00,NE,44,2.0,4.0,39,-99.99,,,0.00,0.120000,,2013-04-18 04:03:00,
2013-04-17 21:13:00,45.0,22.0,-100.00,NE,44,2.0,4.0,39,-99.99,,,0.00,0.120000,,2013-04-18 04:13:00,
2013-04-17 21:43:00,41.0,22.0,-100.00,NNE,26,4.0,6.0,46,-99.99,,,0.00,0.120000,,2013-04-18 04:43:00,
2013-04-17 21:53:00,41.0,22.0,-100.00,NNE,26,4.0,6.0,46,-99.99,,,0.00,0.120000,,2013-04-18 04:53:00,
2013-04-17 22:02:00,41.0,22.0,-100.00,NNE,26,4.0,6.0,46,-99.99,,,0.00,0.120000,,2013-04-18 05:02:00,
2013-04-17 22:12:00,41.0,22.0,-100.00,NNE,26,4.0,6.0,46,-99.99,,,0.00,0.120000,,2013-04-18 05:12:00,
2013-04-17 22:42:00,39.0,22.0,-100.00,NNE,19,3.0,5.0,50,-99.99,,,0.00,0.120000,,2013-04-18 05:42:00,
2013-04-17 22:52:00,39.0,22.0,-100.00,NNE,19,3.0,5.0,50,-99.99,,,0.00,0.120000,,2013-04-18 05:52:00,
2013-04-17 23:02:00,39.0,22.0,-100.00,NNE,19,3.0,5.0,50,-99.99,,,0.00,0.120000,,2013-04-18 06:02:00,
2013-04-17 23:12:00,39.0,22.0,-100.00,NNE,19,3.0,5.0,50,-99.99,,,0.00,0.120000,,2013-04-18 06:12:00,
2013-04-17 23:42:00,38.0,22.0,-100.00,NNE,26,5.0,6.0,52,-99.99,,,0.00,0.120000,,2013-04-18 06:42:00,
2013-04-17 23:52:00,38.0,22.0,-100.00,NNE,26,5.0,6.0,52,-99.99,,,0.00,0.120000,,2013-04-18 06:52:00,